Terminal Aerodrome Forecast
Issued by NWS

Home | Current Version | Previous Version | Text Only | Print | Product List | Glossary On
Versions: 1 2 3 4 5 6 7 8 9 10 11 12 13 14 15 16 17 18 19 20 21 22 23 24 25
957
FTUS43 KDTX 242324
TAFDET
TAF
KDET 242324Z 2500/2524 07012KT P6SM OVC020
     FM250300 13015KT 2SM RA BR OVC007
     FM250700 13015KT 1SM RA BR OVC005 WS007/19045KT
     FM251000 25020G35KT P6SM SCT018 BKN025
     FM251500 24020G30KT P6SM BKN025
     FM252200 24015G25KT P6SM SCT035=

USA.gov is the U.S. government's official web portal to all federal, state and local government web resources and services.